createdAt,value
2024-04-09T00:00:35.575Z,17.46
2024-04-09T00:01:38.202Z,17.27
2024-04-09T00:02:40.079Z,17.11
2024-04-09T00:03:42.484Z,17.01
2024-04-09T00:04:44.342Z,17.07
2024-04-09T00:05:46.385Z,17.14
2024-04-09T00:06:47.952Z,17.06
2024-04-09T00:07:50.112Z,16.98
2024-04-09T00:08:52.023Z,16.89
2024-04-09T00:09:53.606Z,16.87
2024-04-09T00:10:55.506Z,16.76
2024-04-09T00:11:59.875Z,16.72
2024-04-09T00:13:01.843Z,16.65
2024-04-09T00:14:05.521Z,16.63
2024-04-09T00:15:09.088Z,16.54
2024-04-09T00:16:13.641Z,16.61
2024-04-09T00:17:20.428Z,16.56
2024-04-09T00:18:22.229Z,16.57
2024-04-09T00:19:25.422Z,16.62
2024-04-09T00:20:27.249Z,16.68
2024-04-09T00:21:31.130Z,16.73
2024-04-09T00:22:33.580Z,16.73
2024-04-09T00:23:36.686Z,16.69
2024-04-09T00:24:38.458Z,16.63
2024-04-09T00:25:42.957Z,16.65
2024-04-09T00:26:45.500Z,16.61
2024-04-09T00:27:48.286Z,16.76
2024-04-09T00:28:49.893Z,16.78
2024-04-09T00:29:51.439Z,16.95
2024-04-09T00:30:54.230Z,16.92
2024-04-09T00:31:56.023Z,16.84
2024-04-09T00:32:57.641Z,16.82
2024-04-09T00:33:59.638Z,16.82
2024-04-09T00:35:01.826Z,16.80
2024-04-09T00:36:03.810Z,16.87
2024-04-09T00:37:05.939Z,16.90
2024-04-09T00:38:08.066Z,16.86
2024-04-09T00:39:21.299Z,16.87
2024-04-09T00:40:23.205Z,16.85
2024-04-09T00:41:24.761Z,16.84
2024-04-09T00:42:27.125Z,16.79
2024-04-09T00:43:29.049Z,16.78
2024-04-09T00:44:32.671Z,16.86
2024-04-09T00:45:34.481Z,16.94
2024-04-09T00:46:36.560Z,17.03
2024-04-09T00:47:39.740Z,17.08
2024-04-09T00:48:44.192Z,17.07
2024-04-09T00:49:47.128Z,17.05
2024-04-09T00:50:49.445Z,17.06
2024-04-09T00:51:53.771Z,17.03
2024-04-09T00:52:57.023Z,16.98
2024-04-09T00:53:59.020Z,17.00
2024-04-09T00:55:03.727Z,17.03
2024-04-09T00:56:07.049Z,17.06
2024-04-09T00:57:08.749Z,17.02
2024-04-09T00:58:13.056Z,16.96
2024-04-09T00:59:17.113Z,16.92
2024-04-09T01:00:21.130Z,16.87
2024-04-09T01:01:22.924Z,16.85
2024-04-09T01:02:24.824Z,16.80
2024-04-09T01:03:27.932Z,16.74
2024-04-09T01:04:30.290Z,16.64
2024-04-09T01:05:32.083Z,16.55
2024-04-09T01:06:33.793Z,16.47
2024-04-09T01:07:36.169Z,16.31
2024-04-09T01:08:37.953Z,16.22
2024-04-09T01:09:42.820Z,16.17
2024-04-09T01:10:44.465Z,16.24
2024-04-09T01:11:46.185Z,16.31
2024-04-09T01:12:48.775Z,16.39
2024-04-09T01:13:51.661Z,16.46
2024-04-09T01:14:53.963Z,16.57
2024-04-09T01:15:55.902Z,16.59
2024-04-09T01:16:57.480Z,16.59
2024-04-09T01:17:59.718Z,16.50
2024-04-09T01:19:01.895Z,16.44
2024-04-09T01:20:04.231Z,16.37
2024-04-09T01:21:06.138Z,16.29
2024-04-09T01:22:07.722Z,16.25
2024-04-09T01:23:09.287Z,16.19
2024-04-09T01:24:10.945Z,16.17
2024-04-09T01:25:12.724Z,16.13
2024-04-09T01:26:15.444Z,16.06
2024-04-09T01:27:17.221Z,16.04
2024-04-09T01:28:19.754Z,15.93
2024-04-09T01:29:23.062Z,15.91
2024-04-09T01:30:25.064Z,15.85
2024-04-09T01:31:26.945Z,15.85
2024-04-09T01:32:28.784Z,15.85
2024-04-09T01:33:30.825Z,15.83
2024-04-09T01:34:33.273Z,15.80
2024-04-09T01:35:35.101Z,15.76
2024-04-09T01:36:37.496Z,15.70
2024-04-09T01:37:39.276Z,15.72
2024-04-09T01:38:41.066Z,15.72
2024-04-09T01:39:42.629Z,15.76
2024-04-09T01:40:44.319Z,15.78
2024-04-09T01:41:45.936Z,15.78
2024-04-09T01:42:47.531Z,15.77
2024-04-09T01:43:49.129Z,15.77
2024-04-09T01:44:50.761Z,15.77
2024-04-09T01:45:52.378Z,15.78
2024-04-09T01:46:53.990Z,15.67
2024-04-09T01:47:55.775Z,15.53
2024-04-09T01:48:57.720Z,15.46
2024-04-09T01:49:59.338Z,15.50
2024-04-09T01:51:01.019Z,15.60
2024-04-09T01:52:03.584Z,15.61
2024-04-09T01:53:06.605Z,15.63
2024-04-09T01:54:08.286Z,15.60
2024-04-09T01:55:09.920Z,15.60
2024-04-09T01:56:11.503Z,15.67
2024-04-09T01:57:13.112Z,15.82
2024-04-09T01:58:15.001Z,15.88
2024-04-09T01:59:16.568Z,15.94
2024-04-09T02:00:22.045Z,15.96
2024-04-09T02:01:23.738Z,16.05
2024-04-09T02:02:25.356Z,16.18
2024-04-09T02:03:27.363Z,16.30
2024-04-09T02:04:29.477Z,16.38
2024-04-09T02:05:36.971Z,16.40
2024-04-09T02:06:38.650Z,16.43
2024-04-09T02:07:40.295Z,16.44
2024-04-09T02:08:42.332Z,16.47
2024-04-09T02:09:44.376Z,16.51
2024-04-09T02:10:46.023Z,16.46
2024-04-09T02:11:47.608Z,16.44
2024-04-09T02:12:50.078Z,16.42
2024-04-09T02:13:51.696Z,16.39
2024-04-09T02:14:54.274Z,16.38
2024-04-09T02:15:59.912Z,16.39
2024-04-09T02:17:02.870Z,16.41
2024-04-09T02:18:04.963Z,16.45
2024-04-09T02:19:07.744Z,16.41
2024-04-09T02:20:11.658Z,16.41
2024-04-09T02:21:16.177Z,16.42
2024-04-09T02:22:18.064Z,16.42
2024-04-09T02:23:20.355Z,16.46
2024-04-09T02:24:23.425Z,16.50
2024-04-09T02:25:25.086Z,16.47
2024-04-09T02:26:27.448Z,16.49
2024-04-09T02:27:29.123Z,16.44
2024-04-09T02:28:30.917Z,16.39
2024-04-09T02:29:32.596Z,16.35
2024-04-09T02:30:34.794Z,16.32
2024-04-09T02:31:37.062Z,16.31
2024-04-09T02:32:38.695Z,16.40
2024-04-09T02:33:40.393Z,16.42
2024-04-09T02:34:42.021Z,16.48
2024-04-09T02:35:43.762Z,16.61
2024-04-09T02:36:45.951Z,16.75
2024-04-09T02:37:48.389Z,16.80
2024-04-09T02:38:50.249Z,16.81
2024-04-09T02:39:52.696Z,16.88
2024-04-09T02:40:54.483Z,16.83
2024-04-09T02:41:56.156Z,16.81
2024-04-09T02:42:57.986Z,16.81
2024-04-09T02:43:59.562Z,16.78
2024-04-09T02:45:01.164Z,16.78
2024-04-09T02:46:03.202Z,16.71
2024-04-09T02:47:06.191Z,16.76
2024-04-09T02:48:08.120Z,16.77
2024-04-09T02:49:09.944Z,16.74
2024-04-09T02:50:11.612Z,16.74
2024-04-09T02:51:13.239Z,16.74
2024-04-09T02:52:14.836Z,16.76
2024-04-09T02:53:16.718Z,16.73
2024-04-09T02:54:18.303Z,16.71
2024-04-09T02:55:19.861Z,16.68
2024-04-09T02:56:21.446Z,16.71
2024-04-09T02:57:23.261Z,16.81
2024-04-09T02:58:24.851Z,16.77
2024-04-09T02:59:26.529Z,16.78
2024-04-09T03:00:29.923Z,16.76
2024-04-09T03:01:31.945Z,16.82
2024-04-09T03:02:33.679Z,16.91
2024-04-09T03:03:38.908Z,16.98
2024-04-09T03:04:40.707Z,17.05
2024-04-09T03:05:42.272Z,17.15
2024-04-09T03:06:44.078Z,17.25
2024-04-09T03:07:46.832Z,17.34
2024-04-09T03:08:48.784Z,17.32
2024-04-09T03:09:50.352Z,17.19
2024-04-09T03:10:52.821Z,17.20
2024-04-09T03:11:54.680Z,17.26
2024-04-09T03:12:56.332Z,17.11
2024-04-09T03:13:57.908Z,17.08
2024-04-09T03:14:59.577Z,17.10
2024-04-09T03:16:01.211Z,16.92
2024-04-09T03:17:02.833Z,16.91
2024-04-09T03:18:05.473Z,16.98
2024-04-09T03:19:07.493Z,17.14
2024-04-09T03:20:11.413Z,17.12
2024-04-09T03:21:13.573Z,17.03
2024-04-09T03:22:15.509Z,16.96
2024-04-09T03:23:17.333Z,16.94
2024-04-09T03:24:18.967Z,16.95
2024-04-09T03:25:20.704Z,16.97
2024-04-09T03:26:24.588Z,17.02
2024-04-09T03:27:27.503Z,16.92
2024-04-09T03:28:29.192Z,16.97
2024-04-09T03:29:30.792Z,16.97
2024-04-09T03:30:33.274Z,16.98
2024-04-09T03:31:35.051Z,16.93
2024-04-09T03:32:36.999Z,16.87
2024-04-09T03:33:38.953Z,16.86
2024-04-09T03:34:41.044Z,16.83
2024-04-09T03:35:42.616Z,16.83
2024-04-09T03:36:44.226Z,16.80
2024-04-09T03:37:45.976Z,16.78
2024-04-09T03:38:47.558Z,16.69
2024-04-09T03:39:49.765Z,16.68
2024-04-09T03:41:03.657Z,16.70
2024-04-09T03:42:05.704Z,16.72
2024-04-09T03:43:07.334Z,16.67
2024-04-09T03:44:09.043Z,16.70
2024-04-09T03:45:12.655Z,16.64
2024-04-09T03:46:16.192Z,16.67
2024-04-09T03:47:18.120Z,16.64
2024-04-09T03:48:19.794Z,16.65
2024-04-09T03:49:21.837Z,16.61
2024-04-09T03:50:23.526Z,16.59
2024-04-09T03:51:26.026Z,16.57
2024-04-09T03:52:27.716Z,16.55
2024-04-09T03:53:29.792Z,16.60
2024-04-09T03:54:32.898Z,16.58
2024-04-09T03:55:34.547Z,16.59
2024-04-09T03:56:36.718Z,16.61
2024-04-09T03:57:39.999Z,16.71
2024-04-09T03:58:43.274Z,16.71
2024-04-09T03:59:44.888Z,16.75
2024-04-09T04:01:07.364Z,16.75
2024-04-09T04:02:10.816Z,16.72
2024-04-09T04:03:12.492Z,16.70
2024-04-09T04:04:14.848Z,16.69
2024-04-09T04:05:16.478Z,16.72
2024-04-09T04:06:18.490Z,16.64
2024-04-09T04:07:20.116Z,16.59
2024-04-09T04:08:33.567Z,16.55
2024-04-09T04:09:35.227Z,16.47
2024-04-09T04:10:37.954Z,16.44
2024-04-09T04:11:39.839Z,16.43
2024-04-09T04:12:41.438Z,16.47
2024-04-09T04:13:43.392Z,16.44
2024-04-09T04:14:46.293Z,16.43
2024-04-09T04:15:59.943Z,16.49
2024-04-09T04:17:04.958Z,16.52
2024-04-09T04:18:06.693Z,16.45
2024-04-09T04:19:08.401Z,16.37
2024-04-09T04:20:10.773Z,16.36
2024-04-09T04:21:17.475Z,16.40
2024-04-09T04:22:19.118Z,16.38
2024-04-09T04:23:20.706Z,16.33
2024-04-09T04:24:22.467Z,16.28
2024-04-09T04:25:24.060Z,16.23
2024-04-09T04:26:26.801Z,16.16
2024-04-09T04:27:28.399Z,16.16
2024-04-09T04:28:34.803Z,16.12
2024-04-09T04:29:36.416Z,16.07
2024-04-09T04:30:38.108Z,15.99
2024-04-09T04:31:39.902Z,15.86
2024-04-09T04:32:41.746Z,15.72
2024-04-09T04:33:45.173Z,15.68
2024-04-09T04:34:47.206Z,15.63
2024-04-09T04:35:48.971Z,15.61
2024-04-09T04:36:50.711Z,15.64
2024-04-09T04:37:52.367Z,15.63
2024-04-09T04:38:53.938Z,15.58
2024-04-09T04:39:55.521Z,15.73
2024-04-09T04:40:57.095Z,15.58
2024-04-09T04:42:00.130Z,15.48
2024-04-09T04:43:01.790Z,15.51
2024-04-09T04:44:03.406Z,15.42
2024-04-09T04:45:05.355Z,15.35
2024-04-09T04:46:10.571Z,15.49
2024-04-09T04:47:12.176Z,15.37
2024-04-09T04:48:14.845Z,15.40
2024-04-09T04:49:17.045Z,15.36
2024-04-09T04:50:18.912Z,15.31
2024-04-09T04:51:20.516Z,15.24
2024-04-09T04:52:22.215Z,15.29
2024-04-09T04:53:24.389Z,15.31
2024-04-09T04:54:26.200Z,15.39
2024-04-09T04:55:28.482Z,15.44
2024-04-09T04:56:31.480Z,15.40
2024-04-09T04:57:33.408Z,15.39
2024-04-09T04:58:35.913Z,15.32
2024-04-09T04:59:38.288Z,15.30
2024-04-09T05:00:41.606Z,15.31
2024-04-09T05:01:43.328Z,15.34
2024-04-09T05:02:45.075Z,15.42
2024-04-09T05:03:46.897Z,15.41
2024-04-09T05:04:54.537Z,15.37
2024-04-09T05:05:56.116Z,15.33
2024-04-09T05:06:57.736Z,15.27
2024-04-09T05:07:59.387Z,15.21
2024-04-09T05:09:00.980Z,15.17
2024-04-09T05:10:03.121Z,15.23
2024-04-09T05:11:09.940Z,15.13
2024-04-09T05:12:11.695Z,15.17
2024-04-09T05:13:13.297Z,15.11
2024-04-09T05:14:14.861Z,15.04
2024-04-09T05:15:17.562Z,15.02
2024-04-09T05:16:19.408Z,14.97
2024-04-09T05:17:21.056Z,14.91
2024-04-09T05:18:22.771Z,14.91
2024-04-09T05:19:24.535Z,14.88
2024-04-09T05:20:30.552Z,14.86
2024-04-09T05:21:32.261Z,14.84
2024-04-09T05:22:33.855Z,14.83
2024-04-09T05:23:35.449Z,14.83
2024-04-09T05:24:40.312Z,14.78
2024-04-09T05:25:41.938Z,14.79
2024-04-09T05:26:43.525Z,14.78
2024-04-09T05:27:48.076Z,14.77
2024-04-09T05:28:49.956Z,14.78
2024-04-09T05:29:51.611Z,14.92
2024-04-09T05:30:53.241Z,14.90
2024-04-09T05:31:55.257Z,15.01
2024-04-09T05:32:57.043Z,15.01
2024-04-09T05:33:58.859Z,15.01
2024-04-09T05:35:00.459Z,14.99
2024-04-09T05:36:02.122Z,15.00
2024-04-09T05:37:03.879Z,15.09
2024-04-09T05:38:05.906Z,15.14
2024-04-09T05:39:09.418Z,15.22
2024-04-09T05:40:12.006Z,15.27
2024-04-09T05:41:13.569Z,15.23
2024-04-09T05:42:16.000Z,15.25
2024-04-09T05:43:19.647Z,15.28
2024-04-09T05:44:21.290Z,15.26
2024-04-09T05:45:23.309Z,15.33
2024-04-09T05:46:25.003Z,15.36
2024-04-09T05:47:26.723Z,15.35
2024-04-09T05:48:29.237Z,15.41
2024-04-09T05:49:31.077Z,15.56
2024-04-09T05:50:33.253Z,15.55
2024-04-09T05:51:35.431Z,15.51
2024-04-09T05:52:37.578Z,15.56
2024-04-09T05:53:39.394Z,15.61
2024-04-09T05:54:45.222Z,15.59
2024-04-09T05:55:56.784Z,15.47
2024-04-09T05:56:58.761Z,15.54
2024-04-09T05:58:00.392Z,15.58
2024-04-09T05:59:02.101Z,15.48
2024-04-09T06:00:09.913Z,15.49
2024-04-09T06:01:16.209Z,15.58
2024-04-09T06:02:18.007Z,15.63
2024-04-09T06:03:19.991Z,15.68
2024-04-09T06:04:21.844Z,15.62
2024-04-09T06:05:23.543Z,15.51
2024-04-09T06:06:25.237Z,15.52
2024-04-09T06:07:29.571Z,15.40
2024-04-09T06:08:32.357Z,15.42
2024-04-09T06:09:34.060Z,15.45
2024-04-09T06:10:36.726Z,15.41
2024-04-09T06:11:38.897Z,15.46
2024-04-09T06:12:40.968Z,15.51
2024-04-09T06:13:42.695Z,15.52
2024-04-09T06:14:44.482Z,15.55
2024-04-09T06:15:46.199Z,15.61
2024-04-09T06:16:48.228Z,15.56
2024-04-09T06:17:49.838Z,15.48
2024-04-09T06:18:51.580Z,15.54
2024-04-09T06:19:56.092Z,15.51
2024-04-09T06:20:57.816Z,15.46
2024-04-09T06:21:59.429Z,15.48
2024-04-09T06:23:01.184Z,15.46
2024-04-09T06:24:02.746Z,15.40
2024-04-09T06:25:04.765Z,15.41
2024-04-09T06:26:06.634Z,15.47
2024-04-09T06:27:08.386Z,15.47
2024-04-09T06:28:09.985Z,15.57
2024-04-09T06:29:11.557Z,15.58
2024-04-09T06:30:13.353Z,15.74
2024-04-09T06:31:14.981Z,15.68
2024-04-09T06:32:16.860Z,15.78
2024-04-09T06:33:18.617Z,15.69
2024-04-09T06:34:20.549Z,15.78
2024-04-09T06:35:23.023Z,15.77
2024-04-09T06:36:27.439Z,15.75
2024-04-09T06:37:31.014Z,15.78
2024-04-09T06:38:32.609Z,15.89
2024-04-09T06:39:34.222Z,15.84
2024-04-09T06:40:37.434Z,15.80
2024-04-09T06:41:39.051Z,15.83
2024-04-09T06:42:40.799Z,15.85
2024-04-09T06:43:42.423Z,15.94
2024-04-09T06:44:44.193Z,15.91
2024-04-09T06:45:46.048Z,15.86
2024-04-09T06:46:47.716Z,15.97
2024-04-09T06:47:49.333Z,15.81
2024-04-09T06:48:51.185Z,16.00
2024-04-09T06:49:52.848Z,16.00
2024-04-09T06:50:54.459Z,16.00
2024-04-09T06:51:56.064Z,15.70
2024-04-09T06:52:57.651Z,15.70
2024-04-09T06:53:59.392Z,15.79
2024-04-09T06:55:01.058Z,15.63
2024-04-09T06:56:02.718Z,15.48
2024-04-09T06:57:04.842Z,15.43
2024-04-09T06:58:06.835Z,15.40
2024-04-09T06:59:08.464Z,15.29
2024-04-09T07:00:10.446Z,15.28
2024-04-09T07:01:12.090Z,15.26
2024-04-09T07:02:13.735Z,15.37
2024-04-09T07:03:15.404Z,15.37
2024-04-09T07:04:17.247Z,15.33
2024-04-09T07:05:18.945Z,15.26
2024-04-09T07:06:20.631Z,15.16
2024-04-09T07:07:22.517Z,15.16
2024-04-09T07:08:24.360Z,15.14
2024-04-09T07:09:26.195Z,15.03
2024-04-09T07:10:29.120Z,15.01
2024-04-09T07:11:30.903Z,15.09
2024-04-09T07:12:34.285Z,15.11
2024-04-09T07:13:39.792Z,15.11
2024-04-09T07:14:43.022Z,15.11
2024-04-09T07:15:45.109Z,15.08
2024-04-09T07:16:47.849Z,15.06
2024-04-09T07:17:50.369Z,14.97
2024-04-09T07:18:52.343Z,14.88
2024-04-09T07:19:56.801Z,14.90
2024-04-09T07:20:58.443Z,14.92
2024-04-09T07:22:00.036Z,15.02
2024-04-09T07:23:02.470Z,15.10
2024-04-09T07:24:06.516Z,15.10
2024-04-09T07:25:11.269Z,15.20
2024-04-09T07:26:12.844Z,14.99
2024-04-09T07:27:14.465Z,14.93
2024-04-09T07:28:16.041Z,14.87
2024-04-09T07:29:19.657Z,14.87
2024-04-09T07:30:21.569Z,15.02
2024-04-09T07:31:23.278Z,15.00
2024-04-09T07:32:25.604Z,15.05
2024-04-09T07:33:27.246Z,15.10
2024-04-09T07:34:29.152Z,15.14
2024-04-09T07:35:32.214Z,15.16
2024-04-09T07:36:35.454Z,15.18
2024-04-09T07:37:37.091Z,15.12
2024-04-09T07:38:40.637Z,14.88
2024-04-09T07:39:46.021Z,14.81
2024-04-09T07:40:48.137Z,14.84
2024-04-09T07:41:49.870Z,14.82
2024-04-09T07:42:51.578Z,14.74
2024-04-09T07:43:56.917Z,14.51
2024-04-09T07:44:59.359Z,14.38
2024-04-09T07:46:02.037Z,14.20
2024-04-09T07:47:04.435Z,14.04
2024-04-09T07:48:06.686Z,13.71
2024-04-09T07:49:08.369Z,13.51
2024-04-09T07:50:12.962Z,13.47
2024-04-09T07:51:14.741Z,13.33
2024-04-09T07:52:16.638Z,13.32
2024-04-09T07:53:18.738Z,13.24
2024-04-09T07:54:20.398Z,13.18
2024-04-09T07:55:22.256Z,13.07
2024-04-09T07:56:25.358Z,12.93
2024-04-09T07:57:28.012Z,13.02
2024-04-09T07:58:29.860Z,12.73
2024-04-09T07:59:31.683Z,12.35
2024-04-09T08:00:33.587Z,11.96
2024-04-09T08:01:36.088Z,11.84
2024-04-09T08:02:37.762Z,11.86
2024-04-09T08:03:39.678Z,11.74
2024-04-09T08:04:41.793Z,11.70
2024-04-09T08:05:43.625Z,11.69
2024-04-09T08:06:46.858Z,11.83
2024-04-09T08:07:48.756Z,11.68
2024-04-09T08:08:52.404Z,11.71
2024-04-09T08:09:54.077Z,11.61
2024-04-09T08:10:55.741Z,11.46
2024-04-09T08:11:57.555Z,11.24
2024-04-09T08:13:00.910Z,11.09
2024-04-09T08:14:02.798Z,11.05
2024-04-09T08:15:05.008Z,10.92
2024-04-09T08:16:07.347Z,10.94
2024-04-09T08:17:08.909Z,10.83
2024-04-09T08:18:10.587Z,10.67
2024-04-09T08:19:12.886Z,10.65
2024-04-09T08:20:18.429Z,10.51
2024-04-09T08:21:22.749Z,10.53
2024-04-09T08:22:24.622Z,10.40
2024-04-09T08:23:26.177Z,10.44
2024-04-09T08:24:27.834Z,10.44
2024-04-09T08:25:29.484Z,10.45
2024-04-09T08:26:31.080Z,10.37
2024-04-09T08:27:39.977Z,10.27
2024-04-09T08:28:43.367Z,10.28
2024-04-09T08:29:45.959Z,10.14
2024-04-09T08:30:49.839Z,10.10
2024-04-09T08:31:51.748Z,10.03
2024-04-09T08:32:53.669Z,9.92
2024-04-09T08:33:55.541Z,9.93
2024-04-09T08:34:57.280Z,9.88
2024-04-09T08:35:58.967Z,9.84
2024-04-09T08:37:00.774Z,9.74
2024-04-09T08:38:02.564Z,9.69
2024-04-09T08:39:05.799Z,9.62
2024-04-09T08:40:11.303Z,9.60
2024-04-09T08:41:13.296Z,9.48
2024-04-09T08:42:17.360Z,9.55
2024-04-09T08:43:19.622Z,9.55
2024-04-09T08:44:24.568Z,9.51
2024-04-09T08:45:27.390Z,9.58
2024-04-09T08:46:33.201Z,9.53
2024-04-09T08:47:36.067Z,9.50
2024-04-09T08:48:40.626Z,9.51
2024-04-09T08:49:42.502Z,9.48
2024-04-09T08:50:52.081Z,9.53
2024-04-09T08:51:56.128Z,9.58
2024-04-09T08:52:59.733Z,9.52
2024-04-09T08:54:01.796Z,9.56
2024-04-09T08:55:06.631Z,9.52
2024-04-09T08:56:08.290Z,9.54
2024-04-09T08:57:09.952Z,9.66
2024-04-09T08:58:13.536Z,9.74
2024-04-09T08:59:15.156Z,9.77
2024-04-09T09:00:20.052Z,9.78
2024-04-09T09:01:29.600Z,9.77
2024-04-09T09:02:31.564Z,9.76
2024-04-09T09:03:33.310Z,9.69
2024-04-09T09:04:39.008Z,9.64
2024-04-09T09:05:40.749Z,9.68
2024-04-09T09:06:45.603Z,9.60
2024-04-09T09:08:00.035Z,9.61
2024-04-09T09:09:02.824Z,9.49
2024-04-09T09:10:05.057Z,9.41
2024-04-09T09:11:06.799Z,9.38
2024-04-09T09:12:08.651Z,9.33
2024-04-09T09:13:10.302Z,9.27
2024-04-09T09:14:12.717Z,9.29
2024-04-09T09:15:22.171Z,9.42
2024-04-09T09:16:23.852Z,9.29
2024-04-09T09:17:26.407Z,9.23
2024-04-09T09:18:28.392Z,9.20
2024-04-09T09:19:35.246Z,9.21
2024-04-09T09:20:36.858Z,9.26
2024-04-09T09:21:43.241Z,9.24
2024-04-09T09:22:47.039Z,9.15
2024-04-09T09:23:58.629Z,9.19
2024-04-09T09:25:00.956Z,9.13
2024-04-09T09:26:03.680Z,8.96
2024-04-09T09:27:06.955Z,8.97
2024-04-09T09:28:11.677Z,9.01
2024-04-09T09:29:15.592Z,9.00
2024-04-09T09:30:17.328Z,8.94
2024-04-09T09:31:20.137Z,8.83
2024-04-09T09:32:23.013Z,8.89
2024-04-09T09:33:27.831Z,9.01
2024-04-09T09:34:29.476Z,9.06
2024-04-09T09:35:36.482Z,8.97
2024-04-09T09:36:40.013Z,8.97
2024-04-09T09:37:41.859Z,8.89
2024-04-09T09:38:45.498Z,8.82
2024-04-09T09:39:47.928Z,8.78
2024-04-09T09:40:51.914Z,8.83
2024-04-09T09:41:56.574Z,8.77
2024-04-09T09:42:59.030Z,8.80
2024-04-09T09:44:03.637Z,8.94
2024-04-09T09:45:08.115Z,9.01
2024-04-09T09:46:14.662Z,9.01
2024-04-09T09:47:17.589Z,8.98
2024-04-09T09:48:21.668Z,8.89
2024-04-09T09:49:26.136Z,8.91
2024-04-09T09:50:28.065Z,9.00
2024-04-09T09:51:30.805Z,8.98
2024-04-09T09:52:33.493Z,9.01
2024-04-09T09:53:35.839Z,9.21
2024-04-09T09:54:37.922Z,9.15
2024-04-09T09:55:42.762Z,9.32
2024-04-09T09:56:49.866Z,9.42
2024-04-09T09:57:55.059Z,9.54
2024-04-09T09:58:57.825Z,9.59
2024-04-09T10:00:04.848Z,9.71
2024-04-09T10:01:10.772Z,9.51
2024-04-09T10:02:14.291Z,9.49
2024-04-09T10:03:16.735Z,9.25
2024-04-09T10:04:19.888Z,9.31
2024-04-09T10:05:22.072Z,9.23
2024-04-09T10:06:28.650Z,9.40
2024-04-09T10:07:30.502Z,9.17
2024-04-09T10:08:32.229Z,9.11
2024-04-09T10:09:43.549Z,9.17
2024-04-09T10:10:45.367Z,9.11
2024-04-09T10:11:47.025Z,9.19
2024-04-09T10:12:48.753Z,9.15
2024-04-09T10:13:54.342Z,9.08
2024-04-09T10:14:56.731Z,8.96
2024-04-09T10:15:59.831Z,9.20
2024-04-09T10:17:11.827Z,9.13
2024-04-09T10:18:28.310Z,9.17
2024-04-09T10:19:36.503Z,9.09
2024-04-09T10:20:39.058Z,9.14
2024-04-09T10:21:41.149Z,9.24
2024-04-09T10:22:48.032Z,9.11
2024-04-09T10:23:50.336Z,9.13
2024-04-09T10:24:53.427Z,8.98
2024-04-09T10:25:59.022Z,9.07
2024-04-09T10:27:01.002Z,8.99
2024-04-09T10:28:04.726Z,8.93
2024-04-09T10:29:06.480Z,9.04
2024-04-09T10:30:18.542Z,9.05
2024-04-09T10:31:20.137Z,9.08
2024-04-09T10:32:25.605Z,9.14
2024-04-09T10:33:28.953Z,8.74
2024-04-09T10:34:34.570Z,8.79
2024-04-09T10:35:36.445Z,9.06
2024-04-09T10:36:38.608Z,8.88
2024-04-09T10:37:41.732Z,8.89
2024-04-09T10:38:44.631Z,8.88
2024-04-09T10:39:46.837Z,8.94
2024-04-09T10:40:50.427Z,9.09
2024-04-09T10:41:57.606Z,9.10
2024-04-09T10:43:02.502Z,9.13
2024-04-09T10:44:05.356Z,9.05
2024-04-09T10:45:07.757Z,9.02
2024-04-09T10:46:14.522Z,8.82
2024-04-09T10:47:18.068Z,8.90
2024-04-09T10:48:19.880Z,8.79
2024-04-09T10:49:22.749Z,8.62
2024-04-09T10:50:24.472Z,8.65
2024-04-09T10:51:26.182Z,8.69
2024-04-09T10:52:27.880Z,8.77
2024-04-09T10:53:29.454Z,8.67
2024-04-09T10:54:31.703Z,8.63
2024-04-09T10:55:33.364Z,8.57
2024-04-09T10:56:36.292Z,8.51
2024-04-09T10:57:37.984Z,8.51
2024-04-09T10:58:40.186Z,8.55
2024-04-09T10:59:42.108Z,8.63
2024-04-09T11:00:50.290Z,8.54
2024-04-09T11:01:52.403Z,8.49
2024-04-09T11:02:54.531Z,8.54
2024-04-09T11:03:56.263Z,8.71
2024-04-09T11:04:58.008Z,8.67
2024-04-09T11:05:59.676Z,8.54
2024-04-09T11:07:02.152Z,8.54
2024-04-09T11:08:04.000Z,8.43
2024-04-09T11:09:08.054Z,8.53
2024-04-09T11:10:12.179Z,8.44
2024-04-09T11:11:14.075Z,8.51
2024-04-09T11:12:16.320Z,8.44
2024-04-09T11:13:18.391Z,8.46
2024-04-09T11:14:20.097Z,8.31
2024-04-09T11:15:22.400Z,8.30
2024-04-09T11:16:24.066Z,8.25
2024-04-09T11:17:25.746Z,8.14
2024-04-09T11:18:28.197Z,7.96
2024-04-09T11:19:30.825Z,7.95
2024-04-09T11:20:33.827Z,7.95
2024-04-09T11:21:35.625Z,8.07
2024-04-09T11:22:44.004Z,8.08
2024-04-09T11:23:45.755Z,8.14
2024-04-09T11:24:47.589Z,7.91
2024-04-09T11:25:49.856Z,7.89
2024-04-09T11:26:51.624Z,7.90
2024-04-09T11:27:54.630Z,8.02
2024-04-09T11:28:56.515Z,8.03
2024-04-09T11:29:58.110Z,7.99
2024-04-09T11:31:01.468Z,7.90
2024-04-09T11:32:03.945Z,7.78
2024-04-09T11:33:05.732Z,7.86
2024-04-09T11:34:07.501Z,8.01
2024-04-09T11:35:21.714Z,7.94
2024-04-09T11:36:29.897Z,7.98
2024-04-09T11:37:33.873Z,8.07
2024-04-09T11:38:35.583Z,8.10
2024-04-09T11:39:38.274Z,7.95
2024-04-09T11:40:40.027Z,7.88
2024-04-09T11:41:44.700Z,7.91
2024-04-09T11:42:46.594Z,7.89
2024-04-09T11:43:48.183Z,7.87
2024-04-09T11:44:59.526Z,8.05
2024-04-09T11:46:01.983Z,8.06
2024-04-09T11:47:03.786Z,8.09
2024-04-09T11:48:05.802Z,8.12
2024-04-09T11:49:07.498Z,8.00
2024-04-09T11:50:09.094Z,8.00
2024-04-09T11:51:10.866Z,7.87
2024-04-09T11:52:12.622Z,7.87
2024-04-09T11:53:19.957Z,7.91
2024-04-09T11:54:22.470Z,7.88
2024-04-09T11:55:25.709Z,7.94
2024-04-09T11:56:27.803Z,7.93
2024-04-09T11:57:29.537Z,7.95
2024-04-09T11:58:31.167Z,7.88
2024-04-09T11:59:33.078Z,7.81
2024-04-09T12:00:34.787Z,7.87
2024-04-09T12:01:36.540Z,7.81
2024-04-09T12:02:38.429Z,8.00
2024-04-09T12:03:40.423Z,7.97
2024-04-09T12:04:42.574Z,8.00
2024-04-09T12:05:44.516Z,8.10
2024-04-09T12:06:46.330Z,8.22
2024-04-09T12:07:47.962Z,8.22
2024-04-09T12:08:49.593Z,8.11
2024-04-09T12:09:51.345Z,8.10
2024-04-09T12:10:53.952Z,8.12
2024-04-09T12:11:55.633Z,8.06
2024-04-09T12:12:57.252Z,7.88
2024-04-09T12:13:59.664Z,7.78
2024-04-09T12:15:02.412Z,7.81
2024-04-09T12:16:04.428Z,7.86
2024-04-09T12:17:09.021Z,7.83
2024-04-09T12:18:10.767Z,7.81
2024-04-09T12:19:12.580Z,7.91
2024-04-09T12:20:14.291Z,7.91
2024-04-09T12:21:16.042Z,7.75
2024-04-09T12:22:18.073Z,7.66
2024-04-09T12:23:21.723Z,7.66
2024-04-09T12:24:25.353Z,7.81
2024-04-09T12:25:27.066Z,7.73
2024-04-09T12:26:28.687Z,7.66
2024-04-09T12:27:30.416Z,7.72
2024-04-09T12:28:32.031Z,7.60
2024-04-09T12:29:33.642Z,7.72
2024-04-09T12:30:35.664Z,7.68
2024-04-09T12:31:37.713Z,7.76
2024-04-09T12:32:42.029Z,7.66
2024-04-09T12:33:44.059Z,7.64
2024-04-09T12:34:47.363Z,7.53
2024-04-09T12:35:49.163Z,7.63
2024-04-09T12:36:50.774Z,7.68
2024-04-09T12:37:52.357Z,7.72
2024-04-09T12:38:53.927Z,7.65
2024-04-09T12:39:55.576Z,7.63
2024-04-09T12:40:57.392Z,7.64
2024-04-09T12:42:02.175Z,7.68
2024-04-09T12:43:05.413Z,7.72
2024-04-09T12:44:07.252Z,7.65
2024-04-09T12:45:08.970Z,7.68
2024-04-09T12:46:11.247Z,7.57
2024-04-09T12:47:13.095Z,7.49
2024-04-09T12:48:15.092Z,7.41
2024-04-09T12:49:30.843Z,7.48
2024-04-09T12:50:37.010Z,7.43
2024-04-09T12:51:39.577Z,7.31
2024-04-09T12:52:42.043Z,7.38
2024-04-09T12:53:43.639Z,7.43
2024-04-09T12:54:45.472Z,7.46
2024-04-09T12:55:49.132Z,7.37
2024-04-09T12:56:51.178Z,7.56
2024-04-09T12:57:52.768Z,7.55
2024-04-09T12:58:54.382Z,7.54
2024-04-09T13:00:07.011Z,7.51
2024-04-09T13:01:17.793Z,7.41
2024-04-09T13:02:20.207Z,7.41
2024-04-09T13:03:22.507Z,7.59
2024-04-09T13:04:24.208Z,7.55
2024-04-09T13:05:27.101Z,7.77
2024-04-09T13:06:29.052Z,7.75
2024-04-09T13:07:30.943Z,7.81
2024-04-09T13:08:32.540Z,7.77
2024-04-09T13:09:34.212Z,7.80
2024-04-09T13:10:35.859Z,8.04
2024-04-09T13:11:37.752Z,7.96
2024-04-09T13:12:39.488Z,8.05
2024-04-09T13:13:41.150Z,8.12
2024-04-09T13:16:43.649Z,8.19
2024-04-09T13:17:10.001Z,8.38
2024-04-09T13:18:11.820Z,8.05
2024-04-09T13:19:16.474Z,8.23
2024-04-09T13:20:18.217Z,8.27
2024-04-09T13:21:19.960Z,7.99
2024-04-09T13:22:22.077Z,8.01
2024-04-09T13:23:23.739Z,7.95
2024-04-09T13:24:25.544Z,8.06
2024-04-09T13:25:27.126Z,8.12
2024-04-09T13:26:29.145Z,7.88
2024-04-09T13:27:31.220Z,7.79
2024-04-09T13:28:34.497Z,7.75
2024-04-09T13:29:37.330Z,7.67
2024-04-09T13:30:39.425Z,7.59
2024-04-09T13:31:41.094Z,7.60
2024-04-09T13:32:42.860Z,7.80
2024-04-09T13:33:44.652Z,7.83
2024-04-09T13:34:46.981Z,7.95
2024-04-09T13:35:50.300Z,7.99
2024-04-09T13:36:52.122Z,7.93
2024-04-09T13:37:54.783Z,7.90
2024-04-09T13:38:56.416Z,8.04
2024-04-09T13:39:58.211Z,7.97